Time;durP1;ratioP1;P1;durP2;ratioP2;P2;SDS_P1;SDS_P2;PMS_P1;PMS_P2;Temp;Humidity;BMP_temperature;BMP_pressure;BME280_temperature;BME280_humidity;BME280_pressure;Samples;Min_cycle;Max_cycle;Signal;HPM_P1;HPM_P2
2021/12/13 01:31:26;;;;;;;;;;;25.40;81.30;;;;;;5022974;28;19933;-65
2021/12/13 01:40:00;;;;;;;;;;;25.70;80.50;;;;;;5056486;28;20439;-67
2021/12/13 01:42:29;;;;;;;;;;;25.90;80.70;;;;;;5039088;28;19935;-66
2021/12/13 01:44:57;;;;;;;;;;;26.10;79.20;;;;;;5055648;28;19912;-66
2021/12/13 01:47:25;;;;;;;;;;;25.90;78.90;;;;;;5055408;28;19920;-67
2021/12/13 01:50:04;;;;;;;;;;;26.10;80.50;;;;;;5055348;28;19915;-67
2021/12/13 01:52:31;;;;;;;;;;;26.20;79.30;;;;;;5073176;28;19919;-66
2021/12/13 01:55:00;;;;;;;;;;;26.20;77.80;;;;;;5073314;28;19915;-65
2021/12/13 01:57:39;;;;;;;;;;;26.50;78.80;;;;;;5073723;28;19921;-66
2021/12/13 02:00:17;;;;;;;;;;;26.70;78.90;;;;;;5053214;28;20035;-66
2021/12/13 02:02:45;;;;;;;;;;;26.70;77.60;;;;;;5035883;28;19959;-66
2021/12/13 02:05:16;;;;;;;;;;;26.90;77.30;;;;;;5042951;28;19913;-66
2021/12/13 02:07:48;;;;;;;;;;;26.90;76.10;;;;;;5054706;28;19919;-65
2021/12/13 02:10:20;;;;;;;;;;;27.10;75.90;;;;;;5072952;28;19915;-66
2021/12/13 02:12:55;;;;;;;;;;;27.20;75.90;;;;;;5055151;28;20279;-66
2021/12/13 02:18:07;;;;;;;;;;;26.90;75.00;;;;;;5072737;28;19916;-66
2021/12/13 02:20:36;;;;;;;;;;;27.00;74.80;;;;;;5055049;28;19908;-66
2021/12/13 02:23:03;;;;;;;;;;;27.20;75.40;;;;;;5055094;28;19909;-66
2021/12/13 02:25:31;;;;;;;;;;;27.10;75.10;;;;;;5054770;28;19930;-66
2021/12/13 02:27:58;;;;;;;;;;;26.90;75.30;;;;;;5072502;28;20054;-66
2021/12/13 02:30:27;;;;;;;;;;;27.20;75.50;;;;;;5072744;28;19909;-65
2021/12/13 02:32:54;;;;;;;;;;;27.60;75.90;;;;;;5072612;28;20409;-65
2021/12/13 02:35:21;;;;;;;;;;;27.50;73.50;;;;;;5072737;28;19912;-65
2021/12/13 02:37:48;;;;;;;;;;;27.50;75.20;;;;;;5054974;28;19909;-65
2021/12/13 02:40:15;;;;;;;;;;;27.80;75.10;;;;;;5072646;28;19908;-65
2021/12/13 02:42:42;;;;;;;;;;;28.20;75.00;;;;;;5072640;28;19912;-65
2021/12/13 02:45:14;;;;;;;;;;;28.50;73.00;;;;;;5071361;28;20011;-65
2021/12/13 02:47:51;;;;;;;;;;;28.80;72.20;;;;;;5072522;28;19920;-65
2021/12/13 02:50:24;;;;;;;;;;;29.00;71.70;;;;;;5071009;28;20010;-65
2021/12/13 02:52:51;;;;;;;;;;;29.00;71.20;;;;;;5075301;28;20398;-65
2021/12/13 02:55:21;;;;;;;;;;;28.90;70.30;;;;;;5058524;28;19951;-65
2021/12/13 02:57:49;;;;;;;;;;;29.00;71.50;;;;;;5058103;28;20364;-65
2021/12/13 03:00:35;;;;;;;;;;;29.00;72.00;;;;;;5058307;28;19909;-65
2021/12/13 03:03:03;;;;;;;;;;;29.20;71.90;;;;;;5075907;28;19916;-65
2021/12/13 03:05:32;;;;;;;;;;;29.30;71.00;;;;;;5058299;28;19915;-65
2021/12/13 03:08:03;;;;;;;;;;;29.40;71.30;;;;;;5091461;28;19982;-66
2021/12/13 03:10:31;;;;;;;;;;;29.60;70.10;;;;;;5075961;28;19908;-66
2021/12/13 03:12:58;;;;;;;;;;;29.90;70.10;;;;;;5058195;28;19916;-66
2021/12/13 03:15:26;;;;;;;;;;;30.20;69.20;;;;;;5075855;28;19988;-66
2021/12/13 03:17:55;;;;;;;;;;;30.40;68.20;;;;;;5075691;28;20311;-66
2021/12/13 03:20:37;;;;;;;;;;;30.40;68.40;;;;;;5074371;28;20260;-66
2021/12/13 03:23:22;;;;;;;;;;;30.40;68.40;;;;;;5075675;28;20329;-66
2021/12/13 03:26:07;;;;;;;;;;;30.70;67.30;;;;;;5076557;28;20275;-65
2021/12/13 03:28:34;;;;;;;;;;;31.00;68.10;;;;;;5075673;28;19912;-65
2021/12/13 03:31:05;;;;;;;;;;;31.00;67.70;;;;;;5075497;28;20007;-65
2021/12/13 03:33:32;;;;;;;;;;;30.90;67.40;;;;;;5074478;28;19923;-66
2021/12/13 03:36:00;;;;;;;;;;;30.80;66.70;;;;;;5075241;28;20287;-66
2021/12/13 03:38:31;;;;;;;;;;;30.90;66.90;;;;;;5057444;28;19919;-65
2021/12/13 03:40:59;;;;;;;;;;;31.00;67.30;;;;;;5075353;28;19962;-65
2021/12/13 03:43:27;;;;;;;;;;;31.10;67.60;;;;;;5057517;28;19915;-65
2021/12/13 03:45:56;;;;;;;;;;;31.10;68.60;;;;;;5074505;28;19912;-68
2021/12/13 03:48:24;;;;;;;;;;;31.00;67.50;;;;;;5056447;28;19920;-65
2021/12/13 03:50:52;;;;;;;;;;;31.10;68.50;;;;;;5073960;28;19913;-66
2021/12/13 03:53:20;;;;;;;;;;;31.20;68.20;;;;;;5071317;28;19912;-66
2021/12/13 03:55:48;;;;;;;;;;;31.30;68.30;;;;;;5078107;28;19920;-67
2021/12/13 03:58:16;;;;;;;;;;;31.50;68.40;;;;;;5073548;28;19965;-65
2021/12/13 04:00:57;;;;;;;;;;;31.70;67.90;;;;;;5074979;28;19915;-66
2021/12/13 04:03:24;;;;;;;;;;;31.70;66.90;;;;;;5090206;28;19920;-65
2021/12/13 04:05:50;;;;;;;;;;;31.40;66.20;;;;;;5074945;28;19957;-65
2021/12/13 04:08:19;;;;;;;;;;;31.40;67.70;;;;;;5074815;28;19920;-67
2021/12/13 04:10:50;;;;;;;;;;;31.60;67.00;;;;;;5090325;28;19912;-66
2021/12/13 04:13:19;;;;;;;;;;;31.40;67.30;;;;;;5090340;28;19913;-67
2021/12/13 04:16:05;;;;;;;;;;;31.40;66.80;;;;;;5074830;28;19909;-66
2021/12/13 04:21:22;;;;;;;;;;;31.50;67.00;;;;;;5075139;28;19912;-65
2021/12/13 04:23:50;;;;;;;;;;;31.40;66.90;;;;;;5089906;28;19908;-64
2021/12/13 04:26:17;;;;;;;;;;;31.50;66.40;;;;;;5074801;28;19920;-64
2021/12/13 04:28:45;;;;;;;;;;;31.50;66.70;;;;;;5090070;28;19912;-64
2021/12/13 04:31:19;;;;;;;;;;;31.50;67.00;;;;;;5089817;28;19909;-65
2021/12/13 04:33:48;;;;;;;;;;;31.60;66.30;;;;;;5074298;28;19912;-65
2021/12/13 04:36:16;;;;;;;;;;;31.50;66.60;;;;;;5089918;28;19908;-66
2021/12/13 04:38:51;;;;;;;;;;;31.60;66.80;;;;;;5074104;28;19909;-66
2021/12/13 04:41:27;;;;;;;;;;;31.80;66.70;;;;;;5089590;28;20264;-66
2021/12/13 04:43:56;;;;;;;;;;;31.60;65.70;;;;;;5060102;28;20011;-65
2021/12/13 04:46:23;;;;;;;;;;;31.50;66.90;;;;;;5044381;28;19959;-65
2021/12/13 04:48:49;;;;;;;;;;;31.40;66.00;;;;;;5073168;28;19920;-66
2021/12/13 04:51:16;;;;;;;;;;;31.10;66.90;;;;;;5036069;28;19909;-66
2021/12/13 04:53:44;;;;;;;;;;;31.10;66.30;;;;;;5069282;28;19967;-66
2021/12/13 04:56:15;;;;;;;;;;;30.70;67.00;;;;;;5069243;28;19919;-66
2021/12/13 04:58:43;;;;;;;;;;;30.60;67.50;;;;;;5053687;28;19909;-67
2021/12/13 05:01:10;;;;;;;;;;;30.50;67.40;;;;;;5069184;28;19909;-66
2021/12/13 05:03:39;;;;;;;;;;;30.40;67.10;;;;;;5052351;28;19917;-66
2021/12/13 05:06:09;;;;;;;;;;;30.40;68.10;;;;;;5053636;28;20035;-66
2021/12/13 05:08:38;;;;;;;;;;;30.50;68.00;;;;;;5069085;28;19908;-66
2021/12/13 05:11:06;;;;;;;;;;;30.50;68.20;;;;;;5053563;28;19932;-66
2021/12/13 05:13:35;;;;;;;;;;;30.30;67.80;;;;;;5053428;28;19915;-66
2021/12/13 05:16:09;;;;;;;;;;;30.30;68.50;;;;;;5069021;28;19920;-66
2021/12/13 05:18:46;;;;;;;;;;;30.30;68.10;;;;;;5053406;28;19909;-66
2021/12/13 05:21:14;;;;;;;;;;;30.30;68.20;;;;;;5053456;28;19994;-67
2021/12/13 05:23:49;;;;;;;;;;;30.10;67.80;;;;;;5035631;28;20054;-67
2021/12/13 05:26:28;;;;;;;;;;;30.20;67.60;;;;;;5053346;28;19909;-66
2021/12/13 05:28:54;;;;;;;;;;;30.00;67.50;;;;;;5053336;28;19909;-67
2021/12/13 05:31:22;;;;;;;;;;;30.10;67.70;;;;;;5035363;28;19912;-67
2021/12/13 05:33:56;;;;;;;;;;;30.30;68.20;;;;;;5053183;28;20283;-66
2021/12/13 05:36:32;;;;;;;;;;;30.30;67.30;;;;;;5053211;28;19916;-67
2021/12/13 05:39:05;;;;;;;;;;;29.80;67.90;;;;;;5035927;28;19967;-66
2021/12/13 05:41:32;;;;;;;;;;;29.70;68.80;;;;;;5053118;28;19931;-67
2021/12/13 05:44:01;;;;;;;;;;;29.70;68.00;;;;;;5067623;28;19956;-67
2021/12/13 05:46:47;;;;;;;;;;;29.60;68.40;;;;;;5073056;28;20339;-66
2021/12/13 05:49:21;;;;;;;;;;;29.50;68.50;;;;;;5055311;28;19909;-65
2021/12/13 05:51:50;;;;;;;;;;;29.60;68.10;;;;;;5055303;28;19908;-66
2021/12/13 05:54:25;;;;;;;;;;;29.60;68.20;;;;;;5073059;28;19908;-67
2021/12/13 05:56:54;;;;;;;;;;;29.60;67.80;;;;;;5054882;28;19916;-67
2021/12/13 05:59:30;;;;;;;;;;;29.50;68.50;;;;;;5064623;28;19919;-66
2021/12/13 06:02:02;;;;;;;;;;;29.60;68.80;;;;;;5052902;28;20368;-67
2021/12/13 06:04:29;;;;;;;;;;;29.60;68.20;;;;;;5051515;28;19963;-67
2021/12/13 06:06:56;;;;;;;;;;;29.60;68.00;;;;;;5052819;28;20493;-71
2021/12/13 06:09:49;;;;;;;;;;;29.60;68.00;;;;;;5051368;28;20011;-67
2021/12/13 06:12:21;;;;;;;;;;;29.50;68.20;;;;;;5029430;28;19909;-67
2021/12/13 06:14:48;;;;;;;;;;;29.70;68.00;;;;;;5068345;28;20368;-67
2021/12/13 06:17:19;;;;;;;;;;;29.70;67.60;;;;;;5068207;28;20003;-67
2021/12/13 06:19:54;;;;;;;;;;;29.70;68.00;;;;;;5068011;28;19955;-67
2021/12/13 06:22:22;;;;;;;;;;;29.40;68.20;;;;;;5052796;28;19909;-67
2021/12/13 06:24:51;;;;;;;;;;;29.20;68.20;;;;;;5052782;28;19909;-67
2021/12/13 06:27:28;;;;;;;;;;;29.10;68.60;;;;;;5056413;28;19967;-66
2021/12/13 06:29:55;;;;;;;;;;;29.00;68.60;;;;;;5056633;28;19995;-66
2021/12/13 06:32:49;;;;;;;;;;;28.90;68.60;;;;;;5050642;28;19927;-67
2021/12/13 06:35:28;;;;;;;;;;;28.90;68.30;;;;;;5051957;28;20027;-66
2021/12/13 06:37:55;;;;;;;;;;;28.70;68.40;;;;;;5066105;28;19940;-66
2021/12/13 06:40:27;;;;;;;;;;;28.50;69.40;;;;;;5069080;28;19915;-66
2021/12/13 06:42:55;;;;;;;;;;;28.60;69.10;;;;;;5085867;28;19963;-66
2021/12/13 06:45:24;;;;;;;;;;;28.30;69.30;;;;;;5056417;28;19932;-66
2021/12/13 06:47:53;;;;;;;;;;;28.00;69.90;;;;;;5056221;28;19980;-67
2021/12/13 06:50:25;;;;;;;;;;;28.20;69.10;;;;;;5056159;28;19948;-67
2021/12/13 06:52:52;;;;;;;;;;;28.30;69.20;;;;;;5071530;28;19913;-67
2021/12/13 06:55:19;;;;;;;;;;;28.10;69.40;;;;;;5071776;28;19909;-67
2021/12/13 06:57:51;;;;;;;;;;;28.20;69.50;;;;;;5071383;28;19909;-68
2021/12/13 07:00:20;;;;;;;;;;;28.00;70.00;;;;;;5071530;28;19959;-67
2021/12/13 07:02:51;;;;;;;;;;;27.90;70.00;;;;;;5056080;28;19916;-68
2021/12/13 07:05:24;;;;;;;;;;;28.00;69.80;;;;;;5057156;28;19913;-67
2021/12/13 07:08:02;;;;;;;;;;;28.00;69.70;;;;;;5067004;28;19920;-68
2021/12/13 07:10:51;;;;;;;;;;;28.00;69.80;;;;;;5071074;28;19909;-70
2021/12/13 07:13:32;;;;;;;;;;;27.90;69.60;;;;;;5045399;28;20376;-68
2021/12/13 07:16:02;;;;;;;;;;;27.90;69.60;;;;;;5055767;28;20230;-67
2021/12/13 07:18:30;;;;;;;;;;;27.80;69.60;;;;;;5055710;28;19916;-66
2021/12/13 07:21:02;;;;;;;;;;;27.60;69.80;;;;;;5070986;28;19908;-67
2021/12/13 07:23:49;;;;;;;;;;;27.40;70.30;;;;;;5055739;28;19915;-67
2021/12/13 07:26:27;;;;;;;;;;;27.40;70.70;;;;;;5041465;28;20349;-67
2021/12/13 07:28:54;;;;;;;;;;;27.30;70.50;;;;;;5071044;28;19908;-67
2021/12/13 07:31:21;;;;;;;;;;;27.30;70.70;;;;;;5070900;28;19916;-67
2021/12/13 07:33:47;;;;;;;;;;;27.10;70.90;;;;;;5055380;28;19962;-67
2021/12/13 07:36:19;;;;;;;;;;;27.00;71.00;;;;;;5070901;28;19956;-67
2021/12/13 07:38:56;;;;;;;;;;;26.80;70.70;;;;;;5052955;28;19916;-67
2021/12/13 07:41:25;;;;;;;;;;;26.70;71.20;;;;;;5037352;28;19913;-67
2021/12/13 07:43:52;;;;;;;;;;;26.70;71.40;;;;;;5068742;28;20360;-67
2021/12/13 07:46:22;;;;;;;;;;;26.60;70.80;;;;;;5057407;28;19915;-67
2021/12/13 07:48:51;;;;;;;;;;;26.40;71.30;;;;;;5075097;28;19955;-67
2021/12/13 07:51:20;;;;;;;;;;;26.30;71.30;;;;;;5075122;28;19912;-67
2021/12/13 07:57:10;;;;;;;;;;;26.00;71.80;;;;;;5052787;28;19952;-70
2021/12/13 07:59:37;;;;;;;;;;;25.80;72.90;;;;;;5054913;28;19940;-70
2021/12/13 08:02:17;;;;;;;;;;;25.60;72.50;;;;;;5037109;28;19913;-69
2021/12/13 08:04:44;;;;;;;;;;;25.40;72.80;;;;;;5054895;28;19970;-70
2021/12/13 08:07:12;;;;;;;;;;;25.20;72.90;;;;;;5054836;28;19958;-69
2021/12/13 08:09:43;;;;;;;;;;;24.90;73.40;;;;;;5054781;28;19962;-69
2021/12/13 08:12:15;;;;;;;;;;;24.70;74.30;;;;;;5054223;28;19909;-69
2021/12/13 08:14:42;;;;;;;;;;;24.50;74.20;;;;;;5053309;28;20276;-69
2021/12/13 08:17:31;;;;;;;;;;;24.20;74.60;;;;;;5051276;28;20281;-69
2021/12/13 08:20:04;;;;;;;;;;;24.10;75.00;;;;;;5053674;28;20361;-69
2021/12/13 08:22:31;;;;;;;;;;;23.90;75.50;;;;;;5053381;28;19908;-69
2021/12/13 08:25:17;;;;;;;;;;;23.70;75.80;;;;;;5054461;28;19916;-69
2021/12/13 08:27:49;;;;;;;;;;;23.60;76.20;;;;;;5054383;28;19948;-70
2021/12/13 08:30:17;;;;;;;;;;;23.40;76.60;;;;;;5054268;28;19908;-69
2021/12/13 08:32:54;;;;;;;;;;;23.20;76.90;;;;;;5036685;28;19936;-69
2021/12/13 08:35:21;;;;;;;;;;;23.00;77.50;;;;;;5054584;28;19909;-70
2021/12/13 08:37:53;;;;;;;;;;;23.00;77.80;;;;;;5054396;28;19909;-70
2021/12/13 08:40:21;;;;;;;;;;;22.80;78.20;;;;;;5054494;28;19909;-68
2021/12/13 08:42:48;;;;;;;;;;;22.70;78.30;;;;;;5031966;28;19909;-71
2021/12/13 08:45:32;;;;;;;;;;;22.60;78.60;;;;;;5016937;28;19909;-71
2021/12/13 08:48:00;;;;;;;;;;;22.40;78.90;;;;;;5016725;28;20188;-70
2021/12/13 08:50:27;;;;;;;;;;;22.40;79.80;;;;;;5015582;28;19996;-71
2021/12/13 08:52:55;;;;;;;;;;;22.30;79.90;;;;;;5034186;28;19913;-69
2021/12/13 08:55:27;;;;;;;;;;;22.20;80.20;;;;;;5034362;28;20362;-69
2021/12/13 08:58:12;;;;;;;;;;;22.00;80.90;;;;;;5033953;28;19967;-69
2021/12/13 09:00:43;;;;;;;;;;;21.90;81.20;;;;;;5034076;28;19909;-69
2021/12/13 09:03:18;;;;;;;;;;;21.70;81.40;;;;;;5016955;28;20312;-69
2021/12/13 09:06:03;;;;;;;;;;;21.60;81.60;;;;;;5034179;28;19936;-68
2021/12/13 09:08:32;;;;;;;;;;;21.60;82.20;;;;;;5034109;28;19913;-69
2021/12/13 09:10:59;;;;;;;;;;;21.50;82.30;;;;;;5034140;28;20000;-71
2021/12/13 09:13:38;;;;;;;;;;;21.50;82.70;;;;;;5049561;28;20430;-68
2021/12/13 09:16:05;;;;;;;;;;;21.40;82.60;;;;;;5035162;28;19956;-69
2021/12/13 09:18:32;;;;;;;;;;;21.30;83.40;;;;;;5041194;28;19959;-69
2021/12/13 09:20:59;;;;;;;;;;;21.20;83.80;;;;;;5053428;28;20308;-69
2021/12/13 09:23:27;;;;;;;;;;;21.20;83.60;;;;;;5053539;28;20373;-68
2021/12/13 09:26:02;;;;;;;;;;;21.10;84.10;;;;;;5053502;28;20254;-68
2021/12/13 09:28:33;;;;;;;;;;;21.00;84.40;;;;;;5053605;28;19913;-69
2021/12/13 09:31:00;;;;;;;;;;;21.00;84.50;;;;;;5035758;28;20277;-69
2021/12/13 09:33:29;;;;;;;;;;;20.90;84.70;;;;;;5053544;28;19977;-70
2021/12/13 09:36:08;;;;;;;;;;;20.90;85.00;;;;;;5035688;28;19916;-70
2021/12/13 09:38:53;;;;;;;;;;;20.80;85.50;;;;;;5035287;28;19913;-71
2021/12/13 09:41:20;;;;;;;;;;;20.80;85.70;;;;;;5053380;28;20323;-70
2021/12/13 09:43:58;;;;;;;;;;;20.80;86.00;;;;;;5053455;28;19915;-69
2021/12/13 09:46:30;;;;;;;;;;;20.70;86.20;;;;;;5053365;28;19908;-69
2021/12/13 09:48:58;;;;;;;;;;;20.70;86.70;;;;;;5053513;28;19909;-70
2021/12/13 09:51:30;;;;;;;;;;;20.70;86.80;;;;;;5053111;28;19916;-69
2021/12/13 09:53:57;;;;;;;;;;;20.70;87.20;;;;;;5035338;28;19909;-70
2021/12/13 09:56:25;;;;;;;;;;;20.70;87.10;;;;;;5052830;28;19920;-70
2021/12/13 09:58:54;;;;;;;;;;;20.60;87.20;;;;;;5052926;28;19970;-70
2021/12/13 10:01:25;;;;;;;;;;;20.50;87.80;;;;;;5052617;28;20004;-70
2021/12/13 10:04:21;;;;;;;;;;;20.50;88.10;;;;;;5052971;28;19944;-70
2021/12/13 10:06:50;;;;;;;;;;;20.40;88.30;;;;;;5031235;28;19920;-69
2021/12/13 10:09:24;;;;;;;;;;;20.40;88.50;;;;;;5032807;28;19971;-69
2021/12/13 10:11:51;;;;;;;;;;;20.40;88.80;;;;;;5032968;28;19909;-69
2021/12/13 10:14:19;;;;;;;;;;;20.30;89.00;;;;;;5032973;28;19933;-69
2021/12/13 10:16:46;;;;;;;;;;;20.20;89.50;;;;;;5015184;28;19910;-70
2021/12/13 10:19:16;;;;;;;;;;;20.20;89.90;;;;;;5015247;28;19917;-72
2021/12/13 10:21:44;;;;;;;;;;;20.20;90.10;;;;;;5032733;28;19916;-70
2021/12/13 10:24:13;;;;;;;;;;;20.20;90.20;;;;;;5032844;28;20288;-70
2021/12/13 10:26:40;;;;;;;;;;;20.20;90.20;;;;;;5032783;28;19913;-70
2021/12/13 10:29:07;;;;;;;;;;;20.20;90.30;;;;;;5032844;28;19916;-70
2021/12/13 10:31:34;;;;;;;;;;;20.20;90.50;;;;;;5032804;28;19931;-72
2021/12/13 10:34:04;;;;;;;;;;;20.10;90.50;;;;;;5033963;28;19988;-73
2021/12/13 10:36:31;;;;;;;;;;;20.10;90.60;;;;;;5049072;28;19909;-72
2021/12/13 10:38:59;;;;;;;;;;;20.00;91.00;;;;;;5046571;28;19966;-73
2021/12/13 10:41:38;;;;;;;;;;;20.00;91.10;;;;;;5027922;28;19968;-72
2021/12/13 10:44:07;;;;;;;;;;;20.00;91.20;;;;;;5044241;28;19913;-71
2021/12/13 10:46:36;;;;;;;;;;;20.00;91.30;;;;;;5032447;28;19920;-71
2021/12/13 10:49:08;;;;;;;;;;;20.00;91.40;;;;;;5032589;28;19913;-72
2021/12/13 10:51:36;;;;;;;;;;;19.90;91.50;;;;;;5032664;28;19913;-71
2021/12/13 10:54:05;;;;;;;;;;;20.00;91.50;;;;;;5032525;28;19909;-74
2021/12/13 10:56:33;;;;;;;;;;;19.90;91.60;;;;;;5032491;28;19921;-70
2021/12/13 10:59:01;;;;;;;;;;;19.90;91.70;;;;;;5014635;28;19909;-72
2021/12/13 11:01:32;;;;;;;;;;;19.80;91.90;;;;;;5032536;28;19971;-74
2021/12/13 11:04:00;;;;;;;;;;;19.80;91.80;;;;;;5032697;28;19909;-73
2021/12/13 11:06:27;;;;;;;;;;;19.80;91.90;;;;;;5033438;28;19916;-73
2021/12/13 11:08:55;;;;;;;;;;;19.80;92.00;;;;;;5052427;28;19909;-72
2021/12/13 11:11:48;;;;;;;;;;;19.80;92.00;;;;;;5018208;28;20285;-72
2021/12/13 11:14:27;;;;;;;;;;;19.80;92.10;;;;;;5096315;22;19924;-72
2021/12/13 11:17:00;;;;;;;;;;;19.70;92.30;;;;;;5098258;28;19972;-73
2021/12/13 11:19:29;;;;;;;;;;;19.70;92.40;;;;;;5081322;28;19908;-73
2021/12/13 11:22:01;;;;;;;;;;;19.70;92.70;;;;;;5098402;28;20291;-73
2021/12/13 11:24:28;;;;;;;;;;;19.70;92.80;;;;;;5116354;28;20279;-73
2021/12/13 11:26:56;;;;;;;;;;;19.60;92.70;;;;;;5116262;28;19964;-73
2021/12/13 11:29:24;;;;;;;;;;;19.60;93.10;;;;;;5116090;28;19932;-73
2021/12/13 11:31:50;;;;;;;;;;;19.60;93.00;;;;;;5116256;28;19908;-72
2021/12/13 11:34:35;;;;;;;;;;;19.60;93.20;;;;;;5116174;28;19908;-73
2021/12/13 11:37:14;;;;;;;;;;;19.50;93.40;;;;;;5116219;28;19930;-72
2021/12/13 11:39:59;;;;;;;;;;;19.50;93.60;;;;;;5115969;28;19908;-72
2021/12/13 11:42:37;;;;;;;;;;;19.50;93.60;;;;;;5111124;28;19908;-73
2021/12/13 11:45:14;;;;;;;;;;;19.50;94.30;;;;;;5114020;28;20010;-73
2021/12/13 11:47:41;;;;;;;;;;;19.50;94.50;;;;;;5115852;28;19912;-74
2021/12/13 11:50:08;;;;;;;;;;;19.40;94.60;;;;;;5115872;28;20365;-74
2021/12/13 11:52:53;;;;;;;;;;;19.40;94.70;;;;;;5115956;28;19908;-73
2021/12/13 11:55:26;;;;;;;;;;;19.40;94.90;;;;;;5112469;28;20441;-73
2021/12/13 11:58:11;;;;;;;;;;;19.30;94.90;;;;;;5085714;28;19920;-73
2021/12/13 12:00:55;;;;;;;;;;;19.30;95.00;;;;;;5104094;28;19912;-74
2021/12/13 12:03:40;;;;;;;;;;;19.30;95.40;;;;;;5104614;28;19912;-73
2021/12/13 12:06:07;;;;;;;;;;;19.20;95.60;;;;;;5104575;28;19908;-72
2021/12/13 12:08:49;;;;;;;;;;;19.20;95.80;;;;;;5105142;28;20119;-72
2021/12/13 12:11:34;;;;;;;;;;;19.20;96.00;;;;;;5105722;28;19912;-72
2021/12/13 12:14:06;;;;;;;;;;;19.10;96.20;;;;;;5115140;28;20343;-73
2021/12/13 12:16:35;;;;;;;;;;;19.10;96.30;;;;;;5115259;28;19950;-72
2021/12/13 12:19:02;;;;;;;;;;;19.10;96.50;;;;;;5115300;28;20389;-73
2021/12/13 12:21:55;;;;;;;;;;;19.00;96.70;;;;;;5115141;28;19960;-76
2021/12/13 12:24:23;;;;;;;;;;;19.00;97.00;;;;;;5075883;28;20352;-70
2021/12/13 12:26:55;;;;;;;;;;;19.00;97.00;;;;;;5106858;28;20333;-72
2021/12/13 12:29:23;;;;;;;;;;;18.90;97.20;;;;;;5110629;28;20314;-70
2021/12/13 12:31:51;;;;;;;;;;;18.90;97.30;;;;;;5112370;28;19908;-71
2021/12/13 12:34:18;;;;;;;;;;;18.80;97.40;;;;;;5094496;28;20357;-71
2021/12/13 12:37:01;;;;;;;;;;;18.80;97.60;;;;;;5094462;28;20097;-72
2021/12/13 12:39:46;;;;;;;;;;;18.80;97.70;;;;;;5076357;28;19912;-71
2021/12/13 12:42:13;;;;;;;;;;;18.80;97.80;;;;;;5094298;28;19908;-69
2021/12/13 12:44:55;;;;;;;;;;;18.80;97.90;;;;;;5111576;28;19911;-71
2021/12/13 12:47:42;;;;;;;;;;;18.70;97.90;;;;;;5114490;28;19955;-70
2021/12/13 12:50:41;;;;;;;;;;;18.70;98.10;;;;;;5096347;28;19907;-73
2021/12/13 12:53:09;;;;;;;;;;;18.60;98.20;;;;;;5058655;28;19950;-71
2021/12/13 12:55:39;;;;;;;;;;;18.60;98.30;;;;;;5114422;28;19907;-71
2021/12/13 12:58:07;;;;;;;;;;;18.60;98.30;;;;;;5114307;28;20019;-71
2021/12/13 13:00:34;;;;;;;;;;;18.60;98.40;;;;;;5114300;28;19935;-71
2021/12/13 13:03:01;;;;;;;;;;;18.50;98.50;;;;;;5114343;28;19908;-71
2021/12/13 13:05:28;;;;;;;;;;;18.50;98.80;;;;;;5114226;28;20336;-71
2021/12/13 13:07:55;;;;;;;;;;;18.50;99.00;;;;;;5114151;28;19912;-71
2021/12/13 13:10:46;;;;;;;;;;;18.40;99.20;;;;;;5114170;28;19907;-71
2021/12/13 13:13:13;;;;;;;;;;;18.40;99.20;;;;;;5098786;28;19908;-71
2021/12/13 13:15:44;;;;;;;;;;;18.40;99.30;;;;;;5114011;28;19912;-71
2021/12/13 13:18:12;;;;;;;;;;;18.30;99.10;;;;;;5114045;28;20298;-71
2021/12/13 13:20:43;;;;;;;;;;;18.30;99.30;;;;;;5095860;28;20424;-71
2021/12/13 13:23:10;;;;;;;;;;;18.20;99.40;;;;;;5114132;28;20279;-72
2021/12/13 13:25:41;;;;;;;;;;;18.20;99.50;;;;;;5113938;28;20342;-72
2021/12/13 13:28:21;;;;;;;;;;;18.20;99.70;;;;;;5095677;28;19954;-72
2021/12/13 13:30:50;;;;;;;;;;;18.10;99.60;;;;;;5113777;28;20331;-72
2021/12/13 13:33:19;;;;;;;;;;;18.10;99.50;;;;;;5078790;28;20002;-72
2021/12/13 13:35:46;;;;;;;;;;;18.10;99.70;;;;;;5095556;28;20274;-71
2021/12/13 13:38:16;;;;;;;;;;;18.00;99.80;;;;;;5113724;28;19969;-71
2021/12/13 13:40:43;;;;;;;;;;;18.00;99.90;;;;;;5095688;28;19931;-72
2021/12/13 13:43:11;;;;;;;;;;;18.00;99.90;;;;;;5113713;28;19907;-72
2021/12/13 13:45:38;;;;;;;;;;;18.00;99.90;;;;;;5078637;28;20375;-72
2021/12/13 13:48:09;;;;;;;;;;;18.00;99.90;;;;;;5113629;28;19915;-72
2021/12/13 13:50:40;;;;;;;;;;;17.90;99.90;;;;;;5113531;28;19908;-72
2021/12/13 13:53:14;;;;;;;;;;;17.90;99.90;;;;;;5113633;28;19908;-72
2021/12/13 13:55:46;;;;;;;;;;;17.80;99.90;;;;;;5113582;28;19960;-71
2021/12/13 13:58:18;;;;;;;;;;;17.80;99.90;;;;;;5095337;28;20366;-71
2021/12/13 14:00:47;;;;;;;;;;;17.80;99.90;;;;;;5095428;28;19919;-71
2021/12/13 14:03:14;;;;;;;;;;;17.80;99.90;;;;;;5112658;28;19916;-71
2021/12/13 14:05:42;;;;;;;;;;;17.90;99.90;;;;;;5094938;28;19912;-71
2021/12/13 14:08:19;;;;;;;;;;;17.90;99.90;;;;;;5113046;28;19923;-71
2021/12/13 14:10:46;;;;;;;;;;;17.80;99.90;;;;;;5094833;28;19908;-71
2021/12/13 14:13:14;;;;;;;;;;;17.80;99.90;;;;;;5112047;28;19908;-71
2021/12/13 14:15:46;;;;;;;;;;;17.70;99.90;;;;;;5093029;28;19912;-71
2021/12/13 14:18:21;;;;;;;;;;;17.70;99.90;;;;;;5092931;28;20408;-71
2021/12/13 14:20:49;;;;;;;;;;;17.60;99.90;;;;;;5093017;28;19908;-71
2021/12/13 14:23:18;;;;;;;;;;;17.60;99.90;;;;;;5075142;28;19908;-71
2021/12/13 14:25:46;;;;;;;;;;;17.60;99.90;;;;;;5092968;28;20427;-71
2021/12/13 14:28:14;;;;;;;;;;;17.50;99.90;;;;;;5075055;28;19919;-72
2021/12/13 14:30:46;;;;;;;;;;;17.60;99.90;;;;;;5074988;28;19944;-71
2021/12/13 14:33:25;;;;;;;;;;;17.60;99.90;;;;;;5092921;28;19915;-71
2021/12/13 14:36:00;;;;;;;;;;;17.50;99.90;;;;;;5092927;28;20314;-71
2021/12/13 14:38:27;;;;;;;;;;;17.50;99.90;;;;;;5092798;28;19908;-71
2021/12/13 14:40:54;;;;;;;;;;;17.40;99.90;;;;;;5092833;28;20361;-72
2021/12/13 14:43:22;;;;;;;;;;;17.40;99.90;;;;;;5092883;28;19955;-71
2021/12/13 14:45:49;;;;;;;;;;;17.40;99.90;;;;;;5092832;28;19954;-71
2021/12/13 14:48:17;;;;;;;;;;;17.30;99.90;;;;;;5096272;28;19919;-71
2021/12/13 14:50:46;;;;;;;;;;;17.30;99.90;;;;;;5096983;28;19923;-71
2021/12/13 14:53:13;;;;;;;;;;;17.30;99.90;;;;;;5078609;28;19909;-71
2021/12/13 14:55:42;;;;;;;;;;;17.30;99.90;;;;;;5078386;28;19947;-71
2021/12/13 14:58:10;;;;;;;;;;;17.30;99.90;;;;;;5096403;28;19908;-71
2021/12/13 15:00:40;;;;;;;;;;;17.20;99.90;;;;;;5096406;28;19908;-71
2021/12/13 15:03:09;;;;;;;;;;;17.30;99.90;;;;;;5096495;28;20002;-71
2021/12/13 15:05:39;;;;;;;;;;;17.30;99.90;;;;;;5096465;28;19915;-71
2021/12/13 15:08:07;;;;;;;;;;;17.30;99.90;;;;;;5096295;28;19981;-71
2021/12/13 15:10:41;;;;;;;;;;;17.20;99.90;;;;;;5096273;28;19958;-71
2021/12/13 15:13:09;;;;;;;;;;;17.20;99.90;;;;;;5096070;28;20056;-70
2021/12/13 15:15:38;;;;;;;;;;;17.10;99.90;;;;;;5096242;28;19915;-71
2021/12/13 15:18:10;;;;;;;;;;;17.20;99.90;;;;;;5078199;28;19912;-71
2021/12/13 15:20:55;;;;;;;;;;;17.10;99.90;;;;;;5096065;28;19919;-71
2021/12/13 15:23:26;;;;;;;;;;;17.10;99.90;;;;;;5078315;28;19916;-72
2021/12/13 15:25:54;;;;;;;;;;;17.10;99.90;;;;;;5096022;28;19912;-72
2021/12/13 15:28:44;;;;;;;;;;;17.10;99.90;;;;;;5077483;28;19999;-72
2021/12/13 15:31:11;;;;;;;;;;;17.00;99.90;;;;;;5082511;28;20282;-72
2021/12/13 15:33:40;;;;;;;;;;;17.00;99.90;;;;;;5096318;28;19908;-72
2021/12/13 15:36:07;;;;;;;;;;;16.90;99.90;;;;;;5095740;28;19962;-72
2021/12/13 15:38:35;;;;;;;;;;;16.90;99.90;;;;;;5095742;28;20279;-71
2021/12/13 15:41:02;;;;;;;;;;;16.90;99.90;;;;;;5077679;28;19908;-72
2021/12/13 15:43:33;;;;;;;;;;;16.90;99.90;;;;;;5095642;28;19907;-72
2021/12/13 15:46:03;;;;;;;;;;;16.90;99.90;;;;;;5095636;28;20333;-72
2021/12/13 15:51:19;;;;;;;;;;;16.80;99.90;;;;;;5095558;28;19962;-72
2021/12/13 15:53:46;;;;;;;;;;;16.80;99.90;;;;;;5095468;28;19908;-71
2021/12/13 15:56:14;;;;;;;;;;;16.80;99.90;;;;;;5095408;28;19908;-72
2021/12/13 15:58:42;;;;;;;;;;;16.70;99.90;;;;;;5076730;28;19908;-72
2021/12/13 16:01:14;;;;;;;;;;;16.70;99.90;;;;;;5077328;28;20364;-72
2021/12/13 16:03:41;;;;;;;;;;;16.70;99.90;;;;;;5077349;28;19958;-72
2021/12/13 16:06:09;;;;;;;;;;;16.60;99.90;;;;;;5095215;28;19915;-71
2021/12/13 16:08:46;;;;;;;;;;;16.60;99.90;;;;;;5076813;28;19944;-71
2021/12/13 16:11:31;;;;;;;;;;;16.60;99.90;;;;;;5095037;28;20003;-71
2021/12/13 16:14:16;;;;;;;;;;;16.60;99.90;;;;;;5094859;28;19920;-71
2021/12/13 16:16:42;;;;;;;;;;;16.60;99.90;;;;;;5094991;28;19912;-71
2021/12/13 16:19:09;;;;;;;;;;;16.60;99.90;;;;;;5076828;28;19943;-71
2021/12/13 16:21:36;;;;;;;;;;;16.60;99.90;;;;;;5094903;28;20020;-72
2021/12/13 16:24:05;;;;;;;;;;;16.50;99.90;;;;;;5076896;28;19974;-71
2021/12/13 16:26:33;;;;;;;;;;;16.60;99.90;;;;;;5094772;28;19915;-72
2021/12/13 16:29:00;;;;;;;;;;;16.50;99.90;;;;;;5076605;28;19991;-72